sensor_id;sensor_type;location;lat;lon;timestamp;temperature;humidity
52919;DHT22;38793;52.690;6.812;2023-06-10T12:41:18;27.90;59.10
52919;DHT22;38793;52.690;6.812;2023-06-10T12:43:46;27.80;61.10
52919;DHT22;38793;52.690;6.812;2023-06-10T12:46:11;27.90;59.90
52919;DHT22;38793;52.690;6.812;2023-06-10T12:48:49;28.10;58.90
52919;DHT22;38793;52.690;6.812;2023-06-10T12:51:15;28.10;57.10
52919;DHT22;38793;52.690;6.812;2023-06-10T12:53:40;28.20;58.20
52919;DHT22;38793;52.690;6.812;2023-06-10T12:56:06;28.30;57.40
52919;DHT22;38793;52.690;6.812;2023-06-10T12:58:31;28.40;58.70
52919;DHT22;38793;52.690;6.812;2023-06-10T13:00:58;28.40;58.60
52919;DHT22;38793;52.690;6.812;2023-06-10T13:03:24;28.50;57.20
52919;DHT22;38793;52.690;6.812;2023-06-10T13:05:50;28.60;56.50
52919;DHT22;38793;52.690;6.812;2023-06-10T13:08:15;28.60;57.50
52919;DHT22;38793;52.690;6.812;2023-06-10T13:10:41;28.60;58.70
52919;DHT22;38793;52.690;6.812;2023-06-10T13:13:08;28.80;56.80
52919;DHT22;38793;52.690;6.812;2023-06-10T13:15:35;28.80;56.80
52919;DHT22;38793;52.690;6.812;2023-06-10T13:18:04;28.80;55.40
52919;DHT22;38793;52.690;6.812;2023-06-10T13:20:30;28.70;55.40
52919;DHT22;38793;52.690;6.812;2023-06-10T13:22:56;28.70;54.20
52919;DHT22;38793;52.690;6.812;2023-06-10T13:25:22;28.70;54.10
52919;DHT22;38793;52.690;6.812;2023-06-10T13:27:48;28.60;53.80
52919;DHT22;38793;52.690;6.812;2023-06-10T13:30:14;28.60;54.90
52919;DHT22;38793;52.690;6.812;2023-06-10T13:32:40;28.50;54.90
52919;DHT22;38793;52.690;6.812;2023-06-10T13:35:06;28.50;55.50
52919;DHT22;38793;52.690;6.812;2023-06-10T13:37:32;28.50;54.10
52919;DHT22;38793;52.690;6.812;2023-06-10T13:39:59;28.60;54.20
52919;DHT22;38793;52.690;6.812;2023-06-10T13:42:25;28.70;55.30
52919;DHT22;38793;52.690;6.812;2023-06-10T13:44:51;28.70;53.10
52919;DHT22;38793;52.690;6.812;2023-06-10T13:47:17;28.70;52.60
52919;DHT22;38793;52.690;6.812;2023-06-10T13:49:43;28.70;52.80
52919;DHT22;38793;52.690;6.812;2023-06-10T13:52:08;28.70;52.70
52919;DHT22;38793;52.690;6.812;2023-06-10T13:54:34;28.70;51.50
52919;DHT22;38793;52.690;6.812;2023-06-10T13:57:03;28.70;50.80
52919;DHT22;38793;52.690;6.812;2023-06-10T13:59:29;28.80;51.10
52919;DHT22;38793;52.690;6.812;2023-06-10T14:01:55;28.90;52.00
52919;DHT22;38793;52.690;6.812;2023-06-10T14:04:21;28.90;52.20
52919;DHT22;38793;52.690;6.812;2023-06-10T14:06:47;28.90;51.90
52919;DHT22;38793;52.690;6.812;2023-06-10T14:09:14;29.00;52.80
52919;DHT22;38793;52.690;6.812;2023-06-10T14:11:39;29.10;53.80
52919;DHT22;38793;52.690;6.812;2023-06-10T14:14:05;29.10;51.00
52919;DHT22;38793;52.690;6.812;2023-06-10T14:16:31;29.10;50.70
52919;DHT22;38793;52.690;6.812;2023-06-10T14:18:56;29.00;50.20
52919;DHT22;38793;52.690;6.812;2023-06-10T14:21:22;29.10;50.20
52919;DHT22;38793;52.690;6.812;2023-06-10T14:23:48;29.10;49.50
52919;DHT22;38793;52.690;6.812;2023-06-10T14:26:14;29.10;49.80
52919;DHT22;38793;52.690;6.812;2023-06-10T14:28:40;29.10;49.30
52919;DHT22;38793;52.690;6.812;2023-06-10T14:31:06;29.10;49.90
52919;DHT22;38793;52.690;6.812;2023-06-10T14:33:32;29.10;48.80
52919;DHT22;38793;52.690;6.812;2023-06-10T14:35:58;29.10;50.00
52919;DHT22;38793;52.690;6.812;2023-06-10T14:38:24;29.20;51.00
52919;DHT22;38793;52.690;6.812;2023-06-10T14:40:49;29.10;49.60
52919;DHT22;38793;52.690;6.812;2023-06-10T14:43:15;29.10;51.10
52919;DHT22;38793;52.690;6.812;2023-06-10T14:45:41;29.10;51.10
52919;DHT22;38793;52.690;6.812;2023-06-10T14:48:07;29.10;51.00
52919;DHT22;38793;52.690;6.812;2023-06-10T14:50:35;29.00;50.50
52919;DHT22;38793;52.690;6.812;2023-06-10T14:53:00;29.00;49.40
52919;DHT22;38793;52.690;6.812;2023-06-10T14:55:26;28.90;50.20
52919;DHT22;38793;52.690;6.812;2023-06-10T14:57:52;28.90;50.30
52919;DHT22;38793;52.690;6.812;2023-06-10T15:00:17;28.90;51.20
52919;DHT22;38793;52.690;6.812;2023-06-10T15:02:47;28.80;50.00
52919;DHT22;38793;52.690;6.812;2023-06-10T15:05:14;28.80;49.40
52919;DHT22;38793;52.690;6.812;2023-06-10T15:07:41;28.70;49.40
52919;DHT22;38793;52.690;6.812;2023-06-10T15:10:07;28.70;49.30
52919;DHT22;38793;52.690;6.812;2023-06-10T15:12:33;28.70;48.50
52919;DHT22;38793;52.690;6.812;2023-06-10T15:14:58;28.70;48.90
52919;DHT22;38793;52.690;6.812;2023-06-10T15:17:24;28.70;48.70
52919;DHT22;38793;52.690;6.812;2023-06-10T15:19:49;28.60;48.00
52919;DHT22;38793;52.690;6.812;2023-06-10T15:22:15;28.70;49.50
52919;DHT22;38793;52.690;6.812;2023-06-10T15:24:40;28.60;49.80
52919;DHT22;38793;52.690;6.812;2023-06-10T15:27:06;28.60;51.20
52919;DHT22;38793;52.690;6.812;2023-06-10T15:29:32;28.60;49.50
52919;DHT22;38793;52.690;6.812;2023-06-10T15:31:57;28.50;50.30
52919;DHT22;38793;52.690;6.812;2023-06-10T15:34:23;28.50;49.60
52919;DHT22;38793;52.690;6.812;2023-06-10T15:36:48;28.50;50.10
52919;DHT22;38793;52.690;6.812;2023-06-10T15:39:14;28.50;50.10
52919;DHT22;38793;52.690;6.812;2023-06-10T15:41:40;28.40;49.90
52919;DHT22;38793;52.690;6.812;2023-06-10T15:44:05;28.40;49.70
52919;DHT22;38793;52.690;6.812;2023-06-10T15:46:31;28.30;49.20
52919;DHT22;38793;52.690;6.812;2023-06-10T15:48:57;28.30;49.50
52919;DHT22;38793;52.690;6.812;2023-06-10T15:51:23;28.30;50.50
52919;DHT22;38793;52.690;6.812;2023-06-10T15:53:49;28.30;51.00
52919;DHT22;38793;52.690;6.812;2023-06-10T15:56:15;28.30;50.50
52919;DHT22;38793;52.690;6.812;2023-06-10T15:58:41;28.30;50.50
52919;DHT22;38793;52.690;6.812;2023-06-10T16:01:07;28.30;49.70
52919;DHT22;38793;52.690;6.812;2023-06-10T16:03:34;28.20;49.60
52919;DHT22;38793;52.690;6.812;2023-06-10T16:06:00;28.20;49.40
52919;DHT22;38793;52.690;6.812;2023-06-10T16:08:26;28.20;49.80
52919;DHT22;38793;52.690;6.812;2023-06-10T16:10:51;28.20;50.40
52919;DHT22;38793;52.690;6.812;2023-06-10T16:13:17;28.20;50.10
52919;DHT22;38793;52.690;6.812;2023-06-10T16:15:43;28.20;49.60
52919;DHT22;38793;52.690;6.812;2023-06-10T16:18:08;28.10;49.40
52919;DHT22;38793;52.690;6.812;2023-06-10T16:20:34;28.10;49.70
52919;DHT22;38793;52.690;6.812;2023-06-10T16:23:04;28.10;50.70
52919;DHT22;38793;52.690;6.812;2023-06-10T16:25:30;28.00;50.10
52919;DHT22;38793;52.690;6.812;2023-06-10T16:27:56;28.10;50.70
52919;DHT22;38793;52.690;6.812;2023-06-10T16:30:22;28.00;49.80
52919;DHT22;38793;52.690;6.812;2023-06-10T16:32:48;28.00;50.50
52919;DHT22;38793;52.690;6.812;2023-06-10T16:35:13;28.00;50.90
52919;DHT22;38793;52.690;6.812;2023-06-10T16:37:39;28.00;51.40
52919;DHT22;38793;52.690;6.812;2023-06-10T16:40:05;28.00;51.70
52919;DHT22;38793;52.690;6.812;2023-06-10T16:42:32;28.00;51.90
52919;DHT22;38793;52.690;6.812;2023-06-10T16:44:57;28.00;51.00
52919;DHT22;38793;52.690;6.812;2023-06-10T16:47:23;28.00;51.00
52919;DHT22;38793;52.690;6.812;2023-06-10T16:49:49;28.00;50.40
52919;DHT22;38793;52.690;6.812;2023-06-10T16:52:15;28.00;52.20
52919;DHT22;38793;52.690;6.812;2023-06-10T16:54:40;28.00;51.10
52919;DHT22;38793;52.690;6.812;2023-06-10T16:57:06;28.00;51.50
52919;DHT22;38793;52.690;6.812;2023-06-10T16:59:32;28.00;51.80
52919;DHT22;38793;52.690;6.812;2023-06-10T17:01:58;28.10;50.80
52919;DHT22;38793;52.690;6.812;2023-06-10T17:04:23;28.10;51.00
52919;DHT22;38793;52.690;6.812;2023-06-10T17:06:49;28.10;51.20
52919;DHT22;38793;52.690;6.812;2023-06-10T17:09:15;28.10;51.20
52919;DHT22;38793;52.690;6.812;2023-06-10T17:11:42;28.20;50.90
52919;DHT22;38793;52.690;6.812;2023-06-10T17:14:07;28.20;51.10
52919;DHT22;38793;52.690;6.812;2023-06-10T17:16:33;28.30;51.80
52919;DHT22;38793;52.690;6.812;2023-06-10T17:18:59;28.30;51.70
52919;DHT22;38793;52.690;6.812;2023-06-10T17:21:24;28.20;52.90
52919;DHT22;38793;52.690;6.812;2023-06-10T17:23:50;28.20;52.60
52919;DHT22;38793;52.690;6.812;2023-06-10T17:26:16;28.10;52.10
52919;DHT22;38793;52.690;6.812;2023-06-10T17:28:42;28.00;52.80
52919;DHT22;38793;52.690;6.812;2023-06-10T17:31:08;27.90;53.40
52919;DHT22;38793;52.690;6.812;2023-06-10T17:33:33;27.90;53.90
52919;DHT22;38793;52.690;6.812;2023-06-10T17:35:59;27.90;53.50
52919;DHT22;38793;52.690;6.812;2023-06-10T17:38:24;27.90;53.40
52919;DHT22;38793;52.690;6.812;2023-06-10T17:40:50;27.90;53.10
52919;DHT22;38793;52.690;6.812;2023-06-10T17:43:16;27.80;53.20
52919;DHT22;38793;52.690;6.812;2023-06-10T17:45:41;27.80;53.70
52919;DHT22;38793;52.690;6.812;2023-06-10T17:48:07;27.70;54.20
52919;DHT22;38793;52.690;6.812;2023-06-10T17:50:32;27.60;54.20
52919;DHT22;38793;52.690;6.812;2023-06-10T17:52:58;27.60;54.80
52919;DHT22;38793;52.690;6.812;2023-06-10T17:55:24;27.50;54.90
52919;DHT22;38793;52.690;6.812;2023-06-10T17:57:49;27.50;55.20
52919;DHT22;38793;52.690;6.812;2023-06-10T18:00:15;27.40;55.80
52919;DHT22;38793;52.690;6.812;2023-06-10T18:02:41;27.30;55.60
52919;DHT22;38793;52.690;6.812;2023-06-10T18:05:07;27.30;55.70
52919;DHT22;38793;52.690;6.812;2023-06-10T18:07:32;27.20;56.20
52919;DHT22;38793;52.690;6.812;2023-06-10T18:09:58;27.20;56.60
52919;DHT22;38793;52.690;6.812;2023-06-10T18:12:24;27.10;57.00
52919;DHT22;38793;52.690;6.812;2023-06-10T18:14:49;27.00;57.20
52919;DHT22;38793;52.690;6.812;2023-06-10T18:17:15;27.00;56.80
52919;DHT22;38793;52.690;6.812;2023-06-10T18:19:41;27.00;57.10
52919;DHT22;38793;52.690;6.812;2023-06-10T18:22:06;26.90;57.10
52919;DHT22;38793;52.690;6.812;2023-06-10T18:24:32;26.90;57.40
52919;DHT22;38793;52.690;6.812;2023-06-10T18:26:58;26.80;56.70
52919;DHT22;38793;52.690;6.812;2023-06-10T18:29:23;26.80;57.00
52919;DHT22;38793;52.690;6.812;2023-06-10T18:31:49;26.70;57.40
52919;DHT22;38793;52.690;6.812;2023-06-10T18:34:15;26.70;57.60
52919;DHT22;38793;52.690;6.812;2023-06-10T18:36:40;26.60;57.30
52919;DHT22;38793;52.690;6.812;2023-06-10T18:39:06;26.60;57.70
52919;DHT22;38793;52.690;6.812;2023-06-10T18:41:31;26.50;57.90
52919;DHT22;38793;52.690;6.812;2023-06-10T18:43:57;26.50;58.50
52919;DHT22;38793;52.690;6.812;2023-06-10T18:46:25;26.40;58.90
52919;DHT22;38793;52.690;6.812;2023-06-10T18:48:51;26.40;59.20
52919;DHT22;38793;52.690;6.812;2023-06-10T18:51:17;26.30;58.90
52919;DHT22;38793;52.690;6.812;2023-06-10T18:53:42;26.30;59.50
52919;DHT22;38793;52.690;6.812;2023-06-10T18:56:08;26.20;59.90
52919;DHT22;38793;52.690;6.812;2023-06-10T18:58:34;26.20;60.40
52919;DHT22;38793;52.690;6.812;2023-06-10T19:01:01;26.10;60.30
52919;DHT22;38793;52.690;6.812;2023-06-10T19:03:27;26.10;60.50
52919;DHT22;38793;52.690;6.812;2023-06-10T19:05:54;26.00;60.50
52919;DHT22;38793;52.690;6.812;2023-06-10T19:08:20;25.90;60.60
52919;DHT22;38793;52.690;6.812;2023-06-10T19:10:45;25.90;61.00
52919;DHT22;38793;52.690;6.812;2023-06-10T19:13:11;25.80;60.90
52919;DHT22;38793;52.690;6.812;2023-06-10T19:15:37;25.80;61.00
52919;DHT22;38793;52.690;6.812;2023-06-10T19:18:02;25.70;61.40
52919;DHT22;38793;52.690;6.812;2023-06-10T19:20:28;25.70;62.00
52919;DHT22;38793;52.690;6.812;2023-06-10T19:22:54;25.60;61.60
52919;DHT22;38793;52.690;6.812;2023-06-10T19:25:19;25.50;61.90
52919;DHT22;38793;52.690;6.812;2023-06-10T19:27:46;25.40;61.80
52919;DHT22;38793;52.690;6.812;2023-06-10T19:30:12;25.30;62.10
52919;DHT22;38793;52.690;6.812;2023-06-10T19:32:38;25.30;62.30
52919;DHT22;38793;52.690;6.812;2023-06-10T19:35:04;25.20;62.40
52919;DHT22;38793;52.690;6.812;2023-06-10T19:37:30;25.10;62.60
52919;DHT22;38793;52.690;6.812;2023-06-10T19:39:56;25.10;62.90
52919;DHT22;38793;52.690;6.812;2023-06-10T19:42:22;25.00;63.00
52919;DHT22;38793;52.690;6.812;2023-06-10T19:44:47;24.90;63.20
52919;DHT22;38793;52.690;6.812;2023-06-10T19:47:13;24.90;63.40
52919;DHT22;38793;52.690;6.812;2023-06-10T19:49:39;24.80;63.70
52919;DHT22;38793;52.690;6.812;2023-06-10T19:52:05;24.70;63.70
52919;DHT22;38793;52.690;6.812;2023-06-10T19:54:35;24.70;64.10
52919;DHT22;38793;52.690;6.812;2023-06-10T19:57:01;24.60;64.00
52919;DHT22;38793;52.690;6.812;2023-06-10T19:59:31;24.50;64.10
52919;DHT22;38793;52.690;6.812;2023-06-10T20:01:58;24.50;64.20
52919;DHT22;38793;52.690;6.812;2023-06-10T20:04:23;24.40;64.70
52919;DHT22;38793;52.690;6.812;2023-06-10T20:06:49;24.30;64.90
52919;DHT22;38793;52.690;6.812;2023-06-10T20:09:15;24.30;64.60
52919;DHT22;38793;52.690;6.812;2023-06-10T20:11:40;24.20;64.50
52919;DHT22;38793;52.690;6.812;2023-06-10T20:14:06;24.20;64.50
52919;DHT22;38793;52.690;6.812;2023-06-10T20:16:31;24.10;64.50
52919;DHT22;38793;52.690;6.812;2023-06-10T20:18:57;24.10;64.80
52919;DHT22;38793;52.690;6.812;2023-06-10T20:21:23;24.00;64.80
52919;DHT22;38793;52.690;6.812;2023-06-10T20:23:48;24.00;65.00
52919;DHT22;38793;52.690;6.812;2023-06-10T20:26:15;23.90;65.10
52919;DHT22;38793;52.690;6.812;2023-06-10T20:28:40;23.80;65.20
52919;DHT22;38793;52.690;6.812;2023-06-10T20:31:06;23.80;65.90
52919;DHT22;38793;52.690;6.812;2023-06-10T20:33:31;23.80;65.60
52919;DHT22;38793;52.690;6.812;2023-06-10T20:35:57;23.70;65.60
52919;DHT22;38793;52.690;6.812;2023-06-10T20:38:23;23.70;65.70
52919;DHT22;38793;52.690;6.812;2023-06-10T20:40:49;23.70;65.90
52919;DHT22;38793;52.690;6.812;2023-06-10T20:43:15;23.60;66.00
52919;DHT22;38793;52.690;6.812;2023-06-10T20:45:43;23.60;66.10
52919;DHT22;38793;52.690;6.812;2023-06-10T20:48:08;23.50;66.50
52919;DHT22;38793;52.690;6.812;2023-06-10T20:50:34;23.40;67.00
52919;DHT22;38793;52.690;6.812;2023-06-10T20:53:00;23.40;67.50
52919;DHT22;38793;52.690;6.812;2023-06-10T20:55:25;23.30;67.90
52919;DHT22;38793;52.690;6.812;2023-06-10T20:57:52;23.20;68.60
52919;DHT22;38793;52.690;6.812;2023-06-10T21:00:21;23.10;68.40
52919;DHT22;38793;52.690;6.812;2023-06-10T21:02:47;22.90;68.50
52919;DHT22;38793;52.690;6.812;2023-06-10T21:05:13;22.90;68.80
52919;DHT22;38793;52.690;6.812;2023-06-10T21:07:38;22.90;69.00
52919;DHT22;38793;52.690;6.812;2023-06-10T21:10:04;22.80;69.30
52919;DHT22;38793;52.690;6.812;2023-06-10T21:12:30;22.70;69.80
52919;DHT22;38793;52.690;6.812;2023-06-10T21:14:57;22.60;69.80
52919;DHT22;38793;52.690;6.812;2023-06-10T21:17:22;22.50;70.20
52919;DHT22;38793;52.690;6.812;2023-06-10T21:19:48;22.40;70.90
52919;DHT22;38793;52.690;6.812;2023-06-10T21:22:14;22.30;71.60
52919;DHT22;38793;52.690;6.812;2023-06-10T21:24:39;22.20;71.90
52919;DHT22;38793;52.690;6.812;2023-06-10T21:27:05;22.10;72.80
52919;DHT22;38793;52.690;6.812;2023-06-10T21:29:31;22.00;72.10
52919;DHT22;38793;52.690;6.812;2023-06-10T21:31:56;21.90;72.20
52919;DHT22;38793;52.690;6.812;2023-06-10T21:34:22;21.70;72.70
52919;DHT22;38793;52.690;6.812;2023-06-10T21:36:48;21.70;71.60
52919;DHT22;38793;52.690;6.812;2023-06-10T21:39:13;21.60;72.40
52919;DHT22;38793;52.690;6.812;2023-06-10T21:41:39;21.50;72.00
52919;DHT22;38793;52.690;6.812;2023-06-10T21:44:04;21.40;72.20
52919;DHT22;38793;52.690;6.812;2023-06-10T21:46:30;21.20;72.60
52919;DHT22;38793;52.690;6.812;2023-06-10T21:48:58;21.10;72.40
52919;DHT22;38793;52.690;6.812;2023-06-10T21:51:24;21.00;72.90
52919;DHT22;38793;52.690;6.812;2023-06-10T21:53:50;20.90;73.10
52919;DHT22;38793;52.690;6.812;2023-06-10T21:56:16;20.90;73.60
52919;DHT22;38793;52.690;6.812;2023-06-10T21:58:43;20.80;73.70
52919;DHT22;38793;52.690;6.812;2023-06-10T22:01:10;20.80;73.60
52919;DHT22;38793;52.690;6.812;2023-06-10T22:03:36;20.80;73.40
52919;DHT22;38793;52.690;6.812;2023-06-10T22:06:01;20.80;73.60
52919;DHT22;38793;52.690;6.812;2023-06-10T22:08:27;20.70;74.50
52919;DHT22;38793;52.690;6.812;2023-06-10T22:10:53;20.70;74.30
52919;DHT22;38793;52.690;6.812;2023-06-10T22:13:19;20.70;74.60
52919;DHT22;38793;52.690;6.812;2023-06-10T22:15:45;20.60;74.70
52919;DHT22;38793;52.690;6.812;2023-06-10T22:18:11;20.50;74.60
52919;DHT22;38793;52.690;6.812;2023-06-10T22:20:36;20.50;74.90
52919;DHT22;38793;52.690;6.812;2023-06-10T22:23:02;20.50;74.50
52919;DHT22;38793;52.690;6.812;2023-06-10T22:25:27;20.50;74.90
52919;DHT22;38793;52.690;6.812;2023-06-10T22:27:53;20.60;74.70
52919;DHT22;38793;52.690;6.812;2023-06-10T22:30:19;20.60;75.20
52919;DHT22;38793;52.690;6.812;2023-06-10T22:32:44;20.60;74.80
52919;DHT22;38793;52.690;6.812;2023-06-10T22:35:11;20.70;75.40
52919;DHT22;38793;52.690;6.812;2023-06-10T22:37:36;20.70;74.90
52919;DHT22;38793;52.690;6.812;2023-06-10T22:40:02;20.70;75.00
52919;DHT22;38793;52.690;6.812;2023-06-10T22:42:28;20.70;75.50
52919;DHT22;38793;52.690;6.812;2023-06-10T22:44:53;20.70;75.30
52919;DHT22;38793;52.690;6.812;2023-06-10T22:47:19;20.70;75.90
52919;DHT22;38793;52.690;6.812;2023-06-10T22:49:44;20.70;75.70
52919;DHT22;38793;52.690;6.812;2023-06-10T22:52:10;20.60;76.30
52919;DHT22;38793;52.690;6.812;2023-06-10T22:54:36;20.60;76.00
52919;DHT22;38793;52.690;6.812;2023-06-10T22:57:02;20.50;77.00
52919;DHT22;38793;52.690;6.812;2023-06-10T22:59:28;20.50;76.80
52919;DHT22;38793;52.690;6.812;2023-06-10T23:01:53;20.50;77.50
52919;DHT22;38793;52.690;6.812;2023-06-10T23:04:19;20.40;77.10
52919;DHT22;38793;52.690;6.812;2023-06-10T23:06:45;20.40;78.10
52919;DHT22;38793;52.690;6.812;2023-06-10T23:09:10;20.40;77.50
52919;DHT22;38793;52.690;6.812;2023-06-10T23:11:36;20.40;78.30
52919;DHT22;38793;52.690;6.812;2023-06-10T23:14:02;20.40;77.80
52919;DHT22;38793;52.690;6.812;2023-06-10T23:16:28;20.40;78.30
52919;DHT22;38793;52.690;6.812;2023-06-10T23:18:53;20.30;78.90
52919;DHT22;38793;52.690;6.812;2023-06-10T23:21:19;20.20;78.70
52919;DHT22;38793;52.690;6.812;2023-06-10T23:23:46;20.20;79.50
52919;DHT22;38793;52.690;6.812;2023-06-10T23:26:19;20.10;79.40
52919;DHT22;38793;52.690;6.812;2023-06-10T23:28:46;20.00;80.10
52919;DHT22;38793;52.690;6.812;2023-06-10T23:31:11;19.80;80.50
52919;DHT22;38793;52.690;6.812;2023-06-10T23:33:37;19.80;81.30
52919;DHT22;38793;52.690;6.812;2023-06-10T23:36:04;19.80;82.40
52919;DHT22;38793;52.690;6.812;2023-06-10T23:38:30;19.80;82.20
52919;DHT22;38793;52.690;6.812;2023-06-10T23:40:55;19.90;83.30
52919;DHT22;38793;52.690;6.812;2023-06-10T23:43:21;19.80;82.70
52919;DHT22;38793;52.690;6.812;2023-06-10T23:45:47;19.90;83.20
52919;DHT22;38793;52.690;6.812;2023-06-10T23:48:12;19.90;83.50
52919;DHT22;38793;52.690;6.812;2023-06-10T23:50:38;19.90;83.70
52919;DHT22;38793;52.690;6.812;2023-06-10T23:53:04;19.90;84.50
52919;DHT22;38793;52.690;6.812;2023-06-10T23:55:32;19.90;83.90
52919;DHT22;38793;52.690;6.812;2023-06-10T23:57:58;20.00;84.30
